Time;durP1;ratioP1;P1;durP2;ratioP2;P2;SDS_P1;SDS_P2;PMS_P1;PMS_P2;Temp;Humidity;BMP_temperature;BMP_pressure;BME280_temperature;BME280_humidity;BME280_pressure;Samples;Min_cycle;Max_cycle;Signal;HPM_P1;HPM_P2
2022/12/25 00:01:41;;;;;;;9.48;2.80;;;;;;;10.85;69.98;100304.81;4496838;31;33679;-71
2022/12/25 00:04:09;;;;;;;7.20;2.80;;;;;;;10.04;73.41;100304.87;4485856;31;33258;-71
2022/12/25 00:06:37;;;;;;;6.57;2.25;;;;;;;10.21;72.58;100312.66;4493017;31;33355;-71
2022/12/25 00:09:04;;;;;;;5.55;2.17;;;;;;;10.38;72.41;100321.38;4494656;31;34764;-71
2022/12/25 00:11:32;;;;;;;8.50;2.40;;;;;;;10.61;71.17;100317.41;4497271;31;33453;-71
2022/12/25 00:14:00;;;;;;;5.82;2.60;;;;;;;11.05;70.18;100317.91;4488939;31;34484;-71
2022/12/25 00:16:27;;;;;;;7.12;2.65;;;;;;;11.24;68.94;100319.75;4492089;31;33255;-71
2022/12/25 00:18:57;;;;;;;5.37;1.98;;;;;;;11.29;68.70;100326.06;4494141;31;34324;-72
2022/12/25 00:21:25;;;;;;;8.82;3.03;;;;;;;11.61;67.29;100322.47;4494871;31;33822;-71
2022/12/25 00:23:54;;;;;;;7.55;2.22;;;;;;;12.11;65.21;100326.66;4489002;31;34572;-72
2022/12/25 00:26:23;;;;;;;7.15;2.10;;;;;;;13.51;60.99;100313.72;4488659;31;33340;-72
2022/12/25 00:28:55;;;;;;;6.22;2.28;;;;;;;13.99;59.14;100329.53;4495754;31;33567;-72
2022/12/25 00:31:24;;;;;;;7.82;2.97;;;;;;;14.34;57.76;100338.72;4487601;31;34616;-72
2022/12/25 00:33:52;;;;;;;8.15;2.55;;;;;;;14.95;54.92;100344.47;4491195;31;34328;-71
2022/12/25 00:36:21;;;;;;;5.20;2.60;;;;;;;14.41;56.27;100333.72;4494289;31;33524;-71
2022/12/25 00:38:48;;;;;;;8.15;3.20;;;;;;;13.76;58.21;100336.44;4485014;31;33986;-72
2022/12/25 00:44:08;;;;;;;11.05;3.20;;;;;;;14.79;55.45;100347.34;4480934;31;34210;-72
2022/12/25 00:46:36;;;;;;;6.40;2.50;;;;;;;13.42;57.79;100350.66;4488971;31;33418;-72
2022/12/25 00:49:03;;;;;;;7.10;2.20;;;;;;;14.06;56.86;100364.50;4483819;31;34708;-71
2022/12/25 00:51:32;;;;;;;7.70;2.58;;;;;;;12.64;59.33;100373.22;4489346;31;34020;-72
2022/12/25 00:53:59;;;;;;;7.57;2.87;;;;;;;13.46;58.17;100378.59;4491007;31;34538;-72
2022/12/25 00:56:27;;;;;;;9.43;3.62;;;;;;;12.96;59.58;100377.22;4495269;31;33056;-71
2022/12/25 00:58:55;;;;;;;6.30;3.28;;;;;;;12.90;60.20;100382.16;4490412;31;34692;-72
2022/12/25 01:01:22;;;;;;;7.57;3.37;;;;;;;12.46;61.41;100374.16;4481122;31;33640;-71
2022/12/25 01:03:50;;;;;;;6.35;3.03;;;;;;;12.37;62.27;100360.72;4490755;31;33648;-72
2022/12/25 01:06:17;;;;;;;9.80;3.60;;;;;;;13.35;59.49;100359.03;4496640;31;33295;-72
2022/12/25 01:11:32;;;;;;;12.40;4.80;;;;;;;12.39;62.02;100359.97;4497738;31;34382;-71
2022/12/25 01:13:59;;;;;;;9.10;4.72;;;;;;;11.09;65.84;100382.09;4495736;31;33911;-71
2022/12/25 01:16:27;;;;;;;10.00;4.65;;;;;;;10.91;67.29;100382.00;4496962;31;33629;-71
2022/12/25 01:18:55;;;;;;;9.15;4.22;;;;;;;11.63;65.56;100382.22;4500192;31;33379;-72
2022/12/25 01:21:23;;;;;;;9.70;4.95;;;;;;;12.07;63.95;100380.94;4501268;31;34108;-72
2022/12/25 01:23:51;;;;;;;9.65;4.57;;;;;;;13.52;59.36;100372.72;4503641;31;34550;-72
2022/12/25 01:26:21;;;;;;;9.10;4.62;;;;;;;12.89;60.38;100373.50;4500723;31;33910;-71
2022/12/25 01:28:50;;;;;;;11.25;4.70;;;;;;;11.99;62.40;100373.69;4492870;31;35013;-72
2022/12/25 01:31:20;;;;;;;10.10;4.68;;;;;;;12.81;60.50;100364.47;4499777;31;33453;-72
2022/12/25 01:33:48;;;;;;;8.25;4.37;;;;;;;12.24;62.09;100360.97;4499836;31;33504;-71
2022/12/25 01:36:18;;;;;;;10.65;4.50;;;;;;;11.84;63.22;100377.19;4496060;31;33256;-72
2022/12/25 01:38:46;;;;;;;8.90;4.35;;;;;;;11.92;62.88;100376.81;4492630;31;33639;-71
2022/12/25 01:41:16;;;;;;;9.48;3.95;;;;;;;11.51;64.89;100393.78;4501728;31;33690;-72
2022/12/25 01:44:04;;;;;;;11.40;4.37;;;;;;;11.20;66.03;100393.91;4486452;31;34665;-72
2022/12/25 01:46:33;;;;;;;9.68;4.50;;;;;;;11.74;63.54;100394.03;4487758;31;33417;-72
2022/12/25 01:49:07;;;;;;;7.32;3.78;;;;;;;10.47;67.87;100399.56;4497018;31;33567;-72
2022/12/25 01:51:39;;;;;;;7.45;3.12;;;;;;;10.84;67.68;100390.31;4500725;31;34474;-72
2022/12/25 01:54:20;;;;;;;6.35;2.85;;;;;;;10.01;71.21;100397.84;4475885;31;34584;-71
2022/12/25 01:56:49;;;;;;;7.03;3.15;;;;;;;9.38;74.69;100406.28;4490030;31;33981;-72
2022/12/25 01:59:18;;;;;;;7.30;2.80;;;;;;;9.60;74.23;100398.97;4492808;31;33936;-71
2022/12/25 02:01:46;;;;;;;11.50;3.12;;;;;;;10.29;71.52;100383.84;4494800;31;33649;-71
2022/12/25 02:04:24;;;;;;;7.32;3.33;;;;;;;9.73;73.00;100394.50;4485382;31;34104;-71
2022/12/25 02:06:52;;;;;;;8.15;3.78;;;;;;;8.59;78.41;100395.47;4487786;31;34283;-71
2022/12/25 02:09:20;;;;;;;8.15;3.65;;;;;;;8.81;78.08;100395.12;4488644;31;33365;-71
2022/12/25 02:11:56;;;;;;;7.03;3.20;;;;;;;9.42;75.86;100403.06;4489819;31;34545;-72
2022/12/25 02:14:26;;;;;;;7.68;2.70;;;;;;;10.51;71.83;100396.34;4489736;31;33225;-71
2022/12/25 02:17:24;;;;;;;8.90;3.03;;;;;;;10.90;69.73;100394.09;4495869;31;34148;-72
2022/12/25 02:20:16;;;;;;;8.10;3.10;;;;;;;11.18;68.45;100403.31;4492592;31;34670;-72
2022/12/25 02:23:06;;;;;;;8.23;2.92;;;;;;;10.82;68.61;100398.88;4484344;32;34049;-71
2022/12/25 02:26:05;;;;;;;11.50;3.37;;;;;;;10.79;68.62;100388.31;4492327;31;33671;-72
2022/12/25 02:29:04;;;;;;;7.68;3.03;;;;;;;10.94;68.42;100387.38;4498251;31;33992;-71
2022/12/25 02:31:38;;;;;;;6.47;3.20;;;;;;;10.43;69.68;100388.16;4491444;31;33618;-71
2022/12/25 02:34:17;;;;;;;7.50;3.27;;;;;;;9.77;73.50;100399.03;4484818;32;33505;-71
2022/12/25 02:36:56;;;;;;;7.32;3.28;;;;;;;9.70;73.70;100384.88;4497894;31;33340;-71
2022/12/25 02:39:56;;;;;;;5.07;2.78;;;;;;;10.97;70.41;100403.06;4484867;31;34051;-72
2022/12/25 03:08:15;;;;;;;7.57;2.90;;;;;;;13.07;61.85;100415.00;4471039;32;33713;-72
2022/12/25 03:16:54;;;;;;;6.68;3.00;;;;;;;11.29;67.68;100448.84;4497515;31;34013;-71
2022/12/25 03:27:56;;;;;;;6.60;2.10;;;;;;;9.58;74.58;100446.22;4487445;31;33656;-72
2022/12/25 03:35:21;;;;;;;6.00;2.53;;;;;;;10.47;70.58;100446.19;4486659;31;34420;-71
2022/12/25 03:37:01;;;;;;;8.10;2.10;;;;;;;9.93;73.69;100452.56;4488321;31;34121;-72
2022/12/25 04:36:07;;;;;;;6.25;3.20;;;;;;;13.03;58.22;100464.22;4491038;31;34046;-71
2022/12/25 04:38:37;;;;;;;6.32;2.92;;;;;;;14.07;55.33;100462.69;4490195;31;33983;-71
2022/12/25 04:41:06;;;;;;;9.23;3.05;;;;;;;13.89;55.30;100458.50;4495713;31;35303;-71
2022/12/25 04:43:34;;;;;;;5.80;2.83;;;;;;;10.11;67.20;100473.47;4492911;31;33240;-71
2022/12/25 04:46:02;;;;;;;7.15;3.15;;;;;;;10.12;70.00;100467.44;4488181;31;33573;-71
2022/12/25 04:48:32;;;;;;;7.43;3.37;;;;;;;11.55;63.33;100472.62;4494936;31;35513;-72
2022/12/25 04:51:20;;;;;;;8.82;3.33;;;;;;;12.56;60.75;100456.91;4496144;31;34124;-71
2022/12/25 04:53:48;;;;;;;8.18;2.90;;;;;;;13.34;57.85;100466.53;4483543;31;33724;-72
2022/12/25 04:56:16;;;;;;;9.00;2.95;;;;;;;12.30;60.84;100463.44;4484192;31;33836;-71
2022/12/25 04:58:44;;;;;;;7.10;2.62;;;;;;;13.09;58.91;100465.38;4487735;31;33822;-71
2022/12/25 05:01:13;;;;;;;9.52;3.72;;;;;;;14.00;55.61;100465.84;4493499;31;34187;-71
2022/12/25 05:03:41;;;;;;;8.98;3.22;;;;;;;13.81;55.83;100475.53;4475260;31;33014;-71
2022/12/25 05:06:08;;;;;;;10.73;4.20;;;;;;;13.42;57.16;100470.34;4486755;31;33738;-72
2022/12/25 05:08:36;;;;;;;7.85;3.70;;;;;;;13.76;55.80;100464.00;4488509;31;33585;-72
2022/12/25 05:11:09;;;;;;;6.57;3.25;;;;;;;13.39;56.69;100465.03;4495173;31;34674;-72
2022/12/25 05:13:37;;;;;;;10.63;3.78;;;;;;;14.49;53.25;100458.31;4498412;31;33986;-71
2022/12/25 05:16:06;;;;;;;11.55;4.97;;;;;;;12.82;58.12;100464.13;4487703;31;34746;-71
2022/12/25 05:18:34;;;;;;;8.43;3.22;;;;;;;13.99;54.95;100458.88;4492093;31;33841;-71
2022/12/25 05:21:03;;;;;;;8.80;3.33;;;;;;;14.92;52.11;100474.75;4497177;31;34661;-72
2022/12/25 05:23:31;;;;;;;11.45;4.25;;;;;;;15.47;50.38;100476.81;4494005;31;34021;-71
2022/12/25 05:26:03;;;;;;;10.15;4.32;;;;;;;12.53;59.06;100485.34;4473469;31;32340;-72
2022/12/25 05:28:31;;;;;;;8.70;3.45;;;;;;;10.21;67.11;100493.88;4489123;31;33950;-71
2022/12/25 05:30:58;;;;;;;6.10;3.05;;;;;;;9.68;71.18;100494.22;4494683;31;33829;-71
2022/12/25 05:33:26;;;;;;;12.10;2.75;;;;;;;9.87;70.81;100486.78;4499506;31;33524;-71
2022/12/25 05:35:53;;;;;;;8.68;3.25;;;;;;;9.64;71.52;100488.88;4494196;31;34770;-71
2022/12/25 05:38:21;;;;;;;9.05;3.30;;;;;;;8.83;75.10;100487.41;4495589;31;34592;-72
2022/12/25 05:40:50;;;;;;;7.18;3.17;;;;;;;8.88;75.49;100489.38;4482161;31;34655;-71
2022/12/25 05:43:18;;;;;;;10.15;2.78;;;;;;;9.17;74.46;100484.31;4483690;32;34338;-71
2022/12/25 05:45:45;;;;;;;9.30;2.95;;;;;;;9.25;74.26;100485.69;4485352;31;34628;-71
2022/12/25 05:48:13;;;;;;;7.03;3.10;;;;;;;9.36;74.21;100495.78;4491386;31;33794;-71
2022/12/25 05:50:41;;;;;;;7.70;3.10;;;;;;;8.71;76.56;100496.97;4491201;31;33837;-71
2022/12/25 05:53:10;;;;;;;8.32;3.00;;;;;;;8.82;76.81;100501.09;4482192;31;33864;-71
2022/12/25 05:55:39;;;;;;;10.82;3.70;;;;;;;8.35;79.03;100509.28;4498761;31;34709;-71
2022/12/25 05:58:07;;;;;;;10.98;4.60;;;;;;;8.25;79.31;100500.03;4500337;31;33707;-71
2022/12/25 06:00:35;;;;;;;9.75;3.75;;;;;;;8.71;78.28;100502.16;4496008;31;33980;-72
2022/12/25 06:03:03;;;;;;;8.55;3.00;;;;;;;8.54;78.07;100506.22;4485911;32;33545;-71
2022/12/25 06:05:31;;;;;;;8.65;3.83;;;;;;;8.52;78.59;100499.16;4491590;31;34491;-71
2022/12/25 06:07:58;;;;;;;12.00;3.67;;;;;;;8.45;78.76;100501.34;4486450;31;33451;-71
2022/12/25 06:10:26;;;;;;;8.20;3.17;;;;;;;8.49;78.30;100501.56;4499296;31;33922;-71
2022/12/25 06:12:53;;;;;;;6.35;3.05;;;;;;;8.30;78.95;100500.31;4488728;31;33217;-72
2022/12/25 06:15:21;;;;;;;9.38;3.55;;;;;;;8.50;78.23;100505.91;4501161;31;34490;-71
2022/12/25 06:17:48;;;;;;;8.75;3.53;;;;;;;8.34;78.96;100494.56;4500995;31;34509;-71
2022/12/25 06:20:16;;;;;;;7.47;2.90;;;;;;;8.69;77.53;100488.22;4500717;31;33594;-72
2022/12/25 06:22:43;;;;;;;7.53;3.15;;;;;;;9.82;73.23;100483.00;4498959;31;33420;-72
2022/12/25 06:25:13;;;;;;;7.57;3.05;;;;;;;11.50;66.94;100490.56;4496228;31;32987;-71
2022/12/25 06:27:41;;;;;;;9.75;3.75;;;;;;;9.90;70.96;100489.50;4494052;31;33948;-71
2022/12/25 06:30:09;;;;;;;9.57;3.80;;;;;;;9.31;73.14;100497.19;4489102;31;34204;-71
2022/12/25 06:32:36;;;;;;;7.75;3.92;;;;;;;9.66;72.08;100494.16;4484282;32;33704;-71
2022/12/25 06:35:05;;;;;;;8.07;3.70;;;;;;;10.53;69.05;100490.56;4496567;31;33883;-72
2022/12/25 06:37:34;;;;;;;11.00;3.45;;;;;;;11.99;64.07;100495.72;4488354;31;34097;-71
2022/12/25 06:40:02;;;;;;;6.18;2.95;;;;;;;12.74;59.73;100488.06;4485591;32;33817;-72
2022/12/25 06:42:30;;;;;;;7.57;3.35;;;;;;;12.12;61.31;100493.72;4497226;31;32858;-71
2022/12/25 06:44:57;;;;;;;8.82;3.87;;;;;;;9.45;69.42;100517.03;4489702;31;34689;-71
2022/12/25 06:47:25;;;;;;;8.55;4.12;;;;;;;7.55;77.87;100537.50;4473684;32;32200;-71
2022/12/25 06:49:52;;;;;;;26.12;15.30;;;;;;;6.95;81.65;100540.16;4484818;32;34502;-71
2022/12/25 06:52:20;;;;;;;17.83;9.57;;;;;;;6.99;82.11;100539.59;4485518;32;32878;-71
2022/12/25 06:54:48;;;;;;;13.20;6.55;;;;;;;7.64;80.12;100542.37;4485309;32;33719;-72
2022/12/25 06:57:15;;;;;;;10.60;6.20;;;;;;;7.94;78.86;100552.97;4488153;31;33684;-72
2022/12/25 06:59:43;;;;;;;13.15;6.55;;;;;;;10.46;69.47;100542.81;4487895;31;34541;-72
2022/12/25 07:02:19;;;;;;;14.35;6.95;;;;;;;10.30;67.11;100535.87;4494906;31;33950;-71
2022/12/25 07:04:47;;;;;;;13.15;6.18;;;;;;;10.71;66.12;100542.50;4470791;31;88231;-72
2022/12/25 07:07:14;;;;;;;10.75;5.65;;;;;;;11.71;62.89;100547.00;4487657;31;32442;-72
2022/12/25 07:09:42;;;;;;;11.82;7.30;;;;;;;12.57;59.68;100546.16;4492038;31;34147;-72
2022/12/25 07:12:12;;;;;;;11.12;4.85;;;;;;;13.66;55.20;100552.97;4490180;31;33225;-74
2022/12/25 07:14:39;;;;;;;19.40;9.10;;;;;;;13.12;56.30;100553.97;4484802;32;34543;-73
2022/12/25 07:17:07;;;;;;;26.12;12.23;;;;;;;12.52;57.63;100563.25;4491823;31;34508;-73
2022/12/25 07:19:35;;;;;;;13.43;6.35;;;;;;;12.38;58.63;100579.03;4493865;31;34142;-73
2022/12/25 07:22:12;;;;;;;16.02;6.40;;;;;;;12.76;58.00;100580.00;4489963;31;34679;-73
2022/12/25 07:24:39;;;;;;;16.73;6.20;;;;;;;12.82;57.96;100594.13;4483445;31;34195;-73
2022/12/25 07:27:07;;;;;;;12.05;5.45;;;;;;;12.85;58.11;100594.28;4486591;31;33935;-73
2022/12/25 07:29:34;;;;;;;11.25;5.45;;;;;;;13.05;57.58;100588.31;4485076;31;33886;-73
2022/12/25 07:32:02;;;;;;;8.88;4.10;;;;;;;13.34;56.70;100581.00;4488542;31;33345;-73
2022/12/25 07:34:30;;;;;;;10.70;4.53;;;;;;;12.92;57.92;100591.16;4486054;31;34277;-73
2022/12/25 07:36:58;;;;;;;10.95;4.95;;;;;;;12.53;59.31;100601.41;4487053;31;34014;-73
2022/12/25 07:39:25;;;;;;;9.18;4.70;;;;;;;13.14;57.89;100593.06;4491921;31;34423;-74
2022/12/25 07:41:52;;;;;;;11.12;5.30;;;;;;;13.14;57.59;100596.56;4493525;31;33983;-73
2022/12/25 07:44:20;;;;;;;9.25;5.15;;;;;;;11.87;61.12;100611.00;4492592;31;33340;-73
2022/12/25 07:46:48;;;;;;;9.55;5.05;;;;;;;10.84;66.00;100613.19;4490624;31;34594;-73
2022/12/25 07:49:15;;;;;;;9.48;5.45;;;;;;;10.08;68.47;100615.63;4492499;31;33435;-73
2022/12/25 07:51:43;;;;;;;11.02;5.85;;;;;;;10.30;69.67;100636.87;4494675;31;33143;-73
2022/12/25 07:54:10;;;;;;;14.32;7.22;;;;;;;9.52;71.68;100632.06;4483882;31;33978;-73
2022/12/25 07:56:38;;;;;;;16.05;7.43;;;;;;;10.34;69.71;100636.25;4486097;31;33696;-73
2022/12/25 07:59:05;;;;;;;20.02;9.23;;;;;;;10.02;70.67;100636.87;4488992;31;33903;-73
2022/12/25 08:01:33;;;;;;;21.23;9.85;;;;;;;9.75;72.48;100647.31;4488643;31;34275;-73
2022/12/25 08:04:01;;;;;;;15.75;9.00;;;;;;;9.98;71.80;100651.31;4488581;31;34649;-73
2022/12/25 08:06:31;;;;;;;16.05;9.20;;;;;;;9.66;72.70;100651.94;4477239;31;33670;-73
2022/12/25 08:09:07;;;;;;;15.80;8.50;;;;;;;11.03;68.28;100647.09;4487065;31;34765;-74
2022/12/25 08:11:35;;;;;;;14.35;8.25;;;;;;;11.89;64.65;100646.63;4487320;31;33285;-73
2022/12/25 08:14:07;;;;;;;16.05;7.47;;;;;;;12.15;63.40;100649.72;4496190;31;33823;-73
2022/12/25 08:16:34;;;;;;;14.85;8.45;;;;;;;12.37;62.33;100657.78;4491841;31;33851;-73
2022/12/25 08:19:02;;;;;;;14.40;7.47;;;;;;;13.06;60.41;100642.12;4475484;31;34040;-72
2022/12/25 08:21:30;;;;;;;13.50;6.97;;;;;;;12.83;60.81;100651.41;4492698;31;34081;-73
2022/12/25 08:23:57;;;;;;;16.25;7.28;;;;;;;12.70;61.14;100652.50;4488241;31;34041;-73
2022/12/25 08:26:25;;;;;;;15.23;7.07;;;;;;;12.68;61.56;100659.34;4487526;31;34364;-73
2022/12/25 08:28:52;;;;;;;11.15;6.40;;;;;;;12.84;60.92;100654.91;4490594;31;33873;-73
2022/12/25 08:31:25;;;;;;;12.55;6.55;;;;;;;13.03;60.67;100656.69;4495242;31;33260;-72
2022/12/25 08:33:55;;;;;;;11.55;5.80;;;;;;;13.18;60.15;100652.22;4486086;31;34555;-73
2022/12/25 08:36:23;;;;;;;11.93;6.30;;;;;;;13.49;59.49;100649.38;4498532;31;33779;-73
2022/12/25 08:38:51;;;;;;;16.40;8.45;;;;;;;12.77;61.92;100649.41;4493036;31;33784;-72
2022/12/25 08:41:27;;;;;;;17.15;8.70;;;;;;;13.30;60.57;100651.94;4492324;31;34167;-72
2022/12/25 08:43:57;;;;;;;15.55;8.77;;;;;;;13.21;60.99;100656.69;4485909;31;33231;-73
2022/12/25 08:46:24;;;;;;;15.70;7.18;;;;;;;13.55;60.18;100647.06;4485228;31;34051;-72
2022/12/25 08:48:52;;;;;;;20.08;11.57;;;;;;;14.48;57.44;100648.53;4484669;31;34029;-75
2022/12/25 08:51:20;;;;;;;16.42;9.23;;;;;;;14.69;56.55;100654.69;4490684;31;33021;-75
2022/12/25 08:53:49;;;;;;;16.65;8.82;;;;;;;14.07;58.09;100656.34;4482892;32;33929;-74
2022/12/25 08:56:18;;;;;;;13.50;8.27;;;;;;;14.06;57.49;100648.47;4483608;32;33893;-74
2022/12/25 08:58:46;;;;;;;12.82;6.72;;;;;;;13.40;59.81;100656.75;4486648;31;33997;-73
2022/12/25 09:01:14;;;;;;;13.88;6.55;;;;;;;11.76;64.63;100660.66;4485565;31;33355;-73
2022/12/25 09:03:42;;;;;;;13.40;6.72;;;;;;;12.22;63.12;100669.97;4485570;31;34578;-73
2022/12/25 09:06:12;;;;;;;11.98;6.60;;;;;;;13.09;61.11;100668.28;4478617;31;32517;-73
2022/12/25 09:08:41;;;;;;;15.00;7.00;;;;;;;13.50;59.57;100665.88;4488735;31;33682;-72
2022/12/25 09:11:18;;;;;;;14.43;6.90;;;;;;;13.55;59.52;100665.28;4484361;32;33522;-73
2022/12/25 09:13:46;;;;;;;12.10;6.60;;;;;;;13.82;59.02;100664.78;4488660;31;33955;-72
2022/12/25 09:16:18;;;;;;;11.20;6.87;;;;;;;12.34;62.52;100665.44;4489142;31;33622;-73
2022/12/25 09:18:47;;;;;;;10.85;5.53;;;;;;;12.34;63.48;100665.44;4483684;32;33980;-73
2022/12/25 09:21:15;;;;;;;12.23;5.75;;;;;;;11.89;64.99;100667.41;4487873;31;33588;-73
2022/12/25 09:23:43;;;;;;;13.43;6.00;;;;;;;11.79;65.61;100665.09;4492330;31;34478;-73
2022/12/25 09:26:13;;;;;;;13.10;6.47;;;;;;;13.60;60.00;100651.59;4488610;31;33702;-73
2022/12/25 09:28:40;;;;;;;11.65;5.68;;;;;;;16.05;52.28;100654.75;4486168;31;33663;-73
2022/12/25 09:31:18;;;;;;;10.50;5.37;;;;;;;16.18;52.03;100654.37;4493324;31;34206;-72
2022/12/25 09:33:45;;;;;;;12.93;5.15;;;;;;;16.31;51.42;100653.97;4483206;31;34529;-73
2022/12/25 09:36:13;;;;;;;10.60;4.68;;;;;;;16.67;50.15;100663.06;4479438;31;34720;-73
2022/12/25 09:38:41;;;;;;;12.45;4.37;;;;;;;16.54;50.84;100656.50;4476659;32;34548;-72
2022/12/25 09:41:32;;;;;;;11.20;4.37;;;;;;;17.26;48.20;100650.16;4485863;31;33999;-73
2022/12/25 09:44:10;;;;;;;10.60;3.80;;;;;;;17.25;48.50;100654.50;4479654;32;33723;-73
2022/12/25 09:46:51;;;;;;;5.90;2.50;;;;;;;17.39;47.97;100656.66;4491080;31;33931;-73
2022/12/25 09:49:23;;;;;;;9.73;3.00;;;;;;;17.75;46.22;100656.88;4480056;31;34162;-73
2022/12/25 09:51:56;;;;;;;8.90;3.03;;;;;;;14.66;54.78;100675.44;4486575;31;33432;-72
2022/12/25 09:54:33;;;;;;;7.43;2.95;;;;;;;13.56;58.17;100661.88;4471457;32;34723;-72
2022/12/25 09:57:01;;;;;;;6.03;3.10;;;;;;;15.89;52.39;100662.03;4468404;32;33685;-72
2022/12/25 09:59:29;;;;;;;5.97;2.72;;;;;;;17.28;47.81;100672.03;4477558;31;33780;-72
2022/12/25 10:02:04;;;;;;;9.95;2.55;;;;;;;16.69;48.87;100672.72;4491029;31;33982;-73
2022/12/25 10:05:02;;;;;;;7.45;2.55;;;;;;;16.36;49.94;100668.94;4486133;31;33942;-73
2022/12/25 10:07:45;;;;;;;8.10;2.75;;;;;;;15.11;53.33;100664.22;4479834;31;33680;-74
2022/12/25 10:10:31;;;;;;;6.30;2.35;;;;;;;15.17;53.81;100668.81;4483630;31;33814;-73
2022/12/25 10:13:26;;;;;;;11.07;2.72;;;;;;;13.67;58.59;100664.97;4491272;31;34087;-73
2022/12/25 10:16:02;;;;;;;9.37;2.60;;;;;;;14.08;57.94;100657.22;4468460;32;32413;-74
2022/12/25 10:19:02;;;;;;;9.63;2.53;;;;;;;14.69;55.86;100649.47;4480851;31;33028;-72
2022/12/25 10:21:30;;;;;;;5.87;2.47;;;;;;;13.27;59.97;100651.75;4486203;31;33552;-73
2022/12/25 10:24:13;;;;;;;8.20;2.05;;;;;;;15.12;55.33;100646.03;4483983;31;34025;-74
2022/12/25 10:26:41;;;;;;;6.97;2.50;;;;;;;15.96;52.74;100649.22;4482132;32;33676;-74
2022/12/25 10:29:14;;;;;;;6.28;2.60;;;;;;;15.03;54.83;100639.56;4474541;32;34098;-74
2022/12/25 10:31:44;;;;;;;5.82;2.50;;;;;;;14.23;56.73;100637.06;4485029;32;34569;-74
2022/12/25 10:34:13;;;;;;;5.62;2.22;;;;;;;15.90;53.02;100632.47;4488747;31;33064;-73
2022/12/25 10:36:42;;;;;;;8.98;3.78;;;;;;;16.75;50.03;100626.69;4483055;32;34499;-72
2022/12/25 10:39:15;;;;;;;9.95;2.90;;;;;;;18.43;45.42;100622.06;4482616;31;33855;-73
2022/12/25 10:42:10;;;;;;;8.32;2.53;;;;;;;17.58;47.18;100631.91;4480516;32;34743;-73
2022/12/25 10:44:37;;;;;;;5.47;1.47;;;;;;;13.99;56.99;100636.00;4480770;31;33499;-72
2022/12/25 10:47:05;;;;;;;6.05;1.90;;;;;;;15.18;54.17;100628.81;4485888;31;33752;-72
2022/12/25 10:49:36;;;;;;;6.45;1.70;;;;;;;14.88;54.77;100634.59;4474634;31;33995;-72
2022/12/25 10:52:25;;;;;;;7.68;2.15;;;;;;;15.24;54.41;100631.66;4490696;31;34484;-72
2022/12/25 10:54:52;;;;;;;8.88;2.25;;;;;;;14.59;56.21;100638.62;4492165;31;33340;-72
2022/12/25 10:57:23;;;;;;;6.32;1.92;;;;;;;16.63;50.44;100621.91;4484361;31;34018;-72
2022/12/25 10:59:55;;;;;;;5.65;1.60;;;;;;;17.45;48.19;100618.44;4495014;31;34077;-72
2022/12/25 11:02:29;;;;;;;5.78;1.40;;;;;;;16.86;50.21;100625.31;4488863;31;33771;-72
2022/12/25 11:05:17;;;;;;;;;;;;;;;16.70;49.42;100622.16;4490827;31;32816;-72
2022/12/25 11:07:52;;;;;;;4.75;1.67;;;;;;;15.03;54.28;100619.56;4473775;32;34261;-73
2022/12/25 11:10:26;;;;;;;6.72;1.80;;;;;;;14.86;55.32;100615.38;4488905;31;34344;-72
2022/12/25 11:12:54;;;;;;;;;;;;;;;15.98;52.32;100610.97;4492473;31;34645;-73
2022/12/25 11:15:38;;;;;;;6.05;1.75;;;;;;;16.54;50.46;100604.19;4489001;31;32692;-73
2022/12/25 11:18:27;;;;;;;7.22;2.03;;;;;;;18.16;45.83;100590.78;4490031;31;33660;-73
2022/12/25 11:20:57;;;;;;;5.45;1.95;;;;;;;16.68;49.93;100592.44;4493463;31;33976;-73
2022/12/25 11:23:26;;;;;;;8.18;1.73;;;;;;;17.13;48.45;100595.63;4492751;31;33935;-72
2022/12/25 11:26:05;;;;;;;7.43;1.60;;;;;;;16.43;51.17;100600.31;4483455;32;33761;-72
2022/12/25 11:28:34;;;;;;;7.35;1.83;;;;;;;17.73;47.11;100594.78;4485037;31;33577;-73
2022/12/25 11:31:18;;;;;;;6.50;2.50;;;;;;;17.49;47.61;100591.50;4484498;31;33853;-73
2022/12/25 11:34:27;;;;;;;5.78;2.12;;;;;;;17.49;47.64;100593.22;4483989;31;34640;-73
2022/12/25 11:36:56;;;;;;;6.30;2.20;;;;;;;16.48;48.92;100590.91;4445759;32;32103;-72
2022/12/25 11:39:27;;;;;;;6.80;2.53;;;;;;;16.97;47.66;100587.28;4489061;31;33909;-72
2022/12/25 11:42:28;;;;;;;6.62;2.22;;;;;;;17.59;46.45;100591.78;4483644;31;33326;-72
2022/12/25 11:45:11;;;;;;;5.30;1.85;;;;;;;18.49;44.51;100584.62;4475134;31;32296;-73
2022/12/25 11:47:49;;;;;;;5.65;1.30;;;;;;;20.10;38.41;100580.28;4485095;32;33409;-73
2022/12/25 11:50:29;;;;;;;6.90;1.65;;;;;;;19.31;40.55;100580.44;4474472;32;32143;-72
2022/12/25 11:53:02;;;;;;;6.22;1.40;;;;;;;19.18;40.79;100581.00;4469795;31;34665;-72
2022/12/25 11:55:36;;;;;;;5.40;1.12;;;;;;;19.38;40.87;100577.09;4492298;31;33664;-72
2022/12/25 11:58:12;;;;;;;7.20;2.12;;;;;;;19.09;42.50;100572.94;4484739;32;33942;-72
2022/12/25 12:00:41;;;;;;;7.62;2.03;;;;;;;18.62;43.32;100571.84;4471531;31;33584;-73
2022/12/25 12:03:22;;;;;;;6.65;2.10;;;;;;;18.31;43.74;100579.78;4483751;32;33969;-73
2022/12/25 12:05:51;;;;;;;10.52;3.47;;;;;;;18.25;45.56;100573.53;4490735;31;33306;-70
2022/12/25 12:08:19;;;;;;;7.47;3.37;;;;;;;16.94;51.14;100568.91;4485796;31;33976;-70
2022/12/25 12:11:17;;;;;;;9.45;3.83;;;;;;;15.82;54.79;100573.84;4488368;31;32187;-70
2022/12/25 12:14:10;;;;;;;9.27;3.10;;;;;;;16.12;53.67;100570.53;4477984;32;33450;-70
2022/12/25 12:16:37;;;;;;;7.93;3.17;;;;;;;15.60;53.52;100572.13;4477337;31;32514;-70
2022/12/25 12:19:24;;;;;;;14.95;5.45;;;;;;;15.75;54.94;100577.06;4486717;31;33501;-70
2022/12/25 12:22:00;;;;;;;7.85;3.00;;;;;;;16.61;53.11;100581.72;4489516;31;34977;-70
2022/12/25 12:24:32;;;;;;;7.32;2.67;;;;;;;16.80;50.21;100571.03;4494128;31;34443;-70
2022/12/25 12:27:23;;;;;;;6.05;2.08;;;;;;;17.29;47.66;100574.31;4484434;31;32092;-70
2022/12/25 12:29:54;;;;;;;9.85;3.22;;;;;;;17.54;47.13;100570.69;4484592;31;34056;-70
2022/12/25 12:33:00;;;;;;;7.18;2.30;;;;;;;18.32;47.52;100576.31;4483993;32;33977;-71
2022/12/25 12:35:29;;;;;;;;;;;;;;;17.36;47.63;100584.12;4474153;31;33980;-70
2022/12/25 12:38:10;;;;;;;5.90;2.37;;;;;;;16.90;50.74;100582.69;4477549;31;34006;-70
2022/12/25 12:40:40;;;;;;;8.55;2.53;;;;;;;16.56;50.69;100571.12;4478451;31;34235;-70
2022/12/25 12:43:31;;;;;;;4.32;1.67;;;;;;;15.70;52.56;100583.78;4481685;31;33647;-70
2022/12/25 12:46:28;;;;;;;4.60;1.67;;;;;;;15.89;52.24;100581.03;4489192;31;34538;-71
2022/12/25 12:49:16;;;;;;;7.55;2.05;;;;;;;16.30;51.67;100594.69;4480739;31;34559;-71
2022/12/25 12:51:44;;;;;;;8.70;1.85;;;;;;;15.76;52.26;100591.00;4481992;31;33549;-70
2022/12/25 12:54:24;;;;;;;5.35;1.67;;;;;;;15.33;53.47;100582.44;4473914;31;33938;-70
2022/12/25 12:57:08;;;;;;;6.43;1.90;;;;;;;15.04;53.72;100584.81;4470679;31;33695;-71
2022/12/25 12:59:38;;;;;;;6.22;2.05;;;;;;;14.98;54.76;100589.78;4471611;32;33668;-71
2022/12/25 13:02:24;;;;;;;8.75;2.40;;;;;;;14.90;56.10;100604.25;4479241;31;34050;-71
2022/12/25 13:05:14;;;;;;;7.47;2.70;;;;;;;14.31;57.76;100603.50;4493533;31;34543;-71
2022/12/25 13:07:48;;;;;;;9.75;3.42;;;;;;;14.02;60.68;100599.66;4468160;32;32406;-71
2022/12/25 13:10:31;;;;;;;10.13;3.58;;;;;;;14.55;60.62;100611.50;4485229;31;34372;-71
2022/12/25 13:13:02;;;;;;;7.80;2.65;;;;;;;15.59;57.70;100600.78;4476555;31;33390;-71
2022/12/25 13:15:32;;;;;;;6.97;2.37;;;;;;;15.60;55.85;100610.41;4486337;31;33884;-72
2022/12/25 13:18:05;;;;;;;7.43;2.90;;;;;;;14.83;57.57;100599.59;4491301;31;34104;-71
2022/12/25 13:20:55;;;;;;;9.55;3.00;;;;;;;16.20;55.63;100603.03;4479791;31;33650;-70
2022/12/25 13:23:34;;;;;;;9.18;2.70;;;;;;;16.28;55.55;100596.37;4495242;31;34388;-70
2022/12/25 13:26:04;;;;;;;7.65;3.12;;;;;;;16.23;54.74;100597.91;4494825;31;34665;-71
2022/12/25 13:28:34;;;;;;;9.60;3.45;;;;;;;15.54;57.02;100588.44;4481325;31;33036;-70
2022/12/25 13:31:02;;;;;;;7.85;3.10;;;;;;;15.32;57.73;100592.00;4494288;31;33599;-70
2022/12/25 13:33:29;;;;;;;12.27;3.25;;;;;;;15.05;58.31;100590.94;4487336;31;33869;-72
2022/12/25 13:35:57;;;;;;;8.63;3.03;;;;;;;15.07;56.97;100590.16;4493087;31;33761;-71